createdAt,value
2023-09-02T00:01:10.228Z,17.00
2023-09-02T00:03:36.187Z,16.90
2023-09-02T00:05:59.490Z,17.00
2023-09-02T00:08:22.937Z,16.90
2023-09-02T00:10:46.162Z,16.90
2023-09-02T00:13:09.331Z,16.90
2023-09-02T00:15:32.595Z,16.80
2023-09-02T00:17:57.261Z,16.80
2023-09-02T00:20:22.045Z,16.80
2023-09-02T00:22:45.584Z,16.90
2023-09-02T00:25:09.694Z,16.90
2023-09-02T00:27:33.165Z,16.90
2023-09-02T00:29:56.578Z,17.00
2023-09-02T00:32:21.579Z,16.90
2023-09-02T00:34:48.215Z,16.80
2023-09-02T00:37:11.577Z,16.80
2023-09-02T00:39:35.158Z,16.80
2023-09-02T00:42:01.734Z,16.70
2023-09-02T00:44:25.799Z,16.70
2023-09-02T00:46:49.663Z,16.60
2023-09-02T00:49:13.080Z,16.70
2023-09-02T00:51:37.857Z,16.80
2023-09-02T00:54:01.044Z,16.80
2023-09-02T00:56:25.781Z,16.70
2023-09-02T00:58:49.093Z,16.80
2023-09-02T01:01:12.871Z,16.80
2023-09-02T01:03:37.572Z,16.80
2023-09-02T01:06:01.158Z,16.80
2023-09-02T01:08:26.121Z,16.60
2023-09-02T01:10:50.091Z,16.80
2023-09-02T01:13:13.543Z,16.60
2023-09-02T01:15:36.742Z,16.60
2023-09-02T01:18:00.109Z,16.60
2023-09-02T01:20:27.453Z,16.60
2023-09-02T01:23:12.785Z,16.60
2023-09-02T01:26:21.970Z,16.60
2023-09-02T01:28:48.588Z,16.50
2023-09-02T01:31:15.799Z,16.60
2023-09-02T01:33:39.377Z,16.60
2023-09-02T01:36:04.156Z,16.50
2023-09-02T01:38:29.001Z,16.60
2023-09-02T01:40:55.054Z,16.50
2023-09-02T01:43:21.906Z,16.50
2023-09-02T01:45:48.628Z,16.40
2023-09-02T01:48:12.814Z,16.40
2023-09-02T01:50:35.740Z,16.40
2023-09-02T01:53:00.064Z,16.50
2023-09-02T01:55:23.855Z,16.50
2023-09-02T01:57:48.439Z,16.30
2023-09-02T02:00:13.765Z,16.30
2023-09-02T02:02:39.508Z,16.30
2023-09-02T02:05:07.840Z,16.30
2023-09-02T02:07:35.631Z,16.30
2023-09-02T02:10:01.606Z,16.30
2023-09-02T02:12:27.431Z,16.40
2023-09-02T02:14:50.994Z,16.30
2023-09-02T02:17:15.376Z,16.20
2023-09-02T02:19:40.311Z,16.30
2023-09-02T02:22:04.016Z,16.30
2023-09-02T02:24:27.756Z,16.30
2023-09-02T02:26:50.959Z,16.30
2023-09-02T02:29:14.265Z,16.20
2023-09-02T02:31:37.826Z,16.20
2023-09-02T02:34:01.169Z,16.20
2023-09-02T02:36:26.042Z,16.20
2023-09-02T02:38:49.249Z,16.20
2023-09-02T02:41:12.536Z,16.10
2023-09-02T02:43:35.762Z,16.10
2023-09-02T02:45:59.488Z,16.10
2023-09-02T02:48:28.034Z,16.10
2023-09-02T02:50:51.233Z,16.20
2023-09-02T02:53:16.311Z,16.10
2023-09-02T02:55:39.869Z,16.00
2023-09-02T02:58:03.389Z,16.10
2023-09-02T03:00:26.916Z,16.10
2023-09-02T03:02:53.439Z,16.00
2023-09-02T03:05:20.856Z,16.00
2023-09-02T03:07:44.172Z,16.10
2023-09-02T03:10:09.579Z,16.10
2023-09-02T03:12:32.835Z,16.00
2023-09-02T03:14:56.199Z,16.00
2023-09-02T03:17:22.263Z,16.00
2023-09-02T03:19:47.357Z,16.10
2023-09-02T03:22:10.577Z,16.00
2023-09-02T03:24:34.019Z,16.00
2023-09-02T03:26:58.563Z,16.00
2023-09-02T03:29:21.952Z,16.10
2023-09-02T03:31:45.292Z,16.00
2023-09-02T03:34:09.389Z,16.00
2023-09-02T03:36:34.092Z,16.00
2023-09-02T03:38:57.304Z,16.00
2023-09-02T03:41:21.864Z,16.00
2023-09-02T03:43:46.929Z,16.10
2023-09-02T03:46:10.934Z,16.00
2023-09-02T03:48:34.493Z,16.10
2023-09-02T03:51:06.276Z,16.00
2023-09-02T03:53:33.196Z,16.00
2023-09-02T03:55:57.095Z,16.00
2023-09-02T03:58:20.611Z,16.10
2023-09-02T04:00:45.210Z,16.10
2023-09-02T04:03:09.285Z,16.00
2023-09-02T04:05:32.598Z,16.00
2023-09-02T04:07:55.835Z,16.00
2023-09-02T04:10:19.027Z,16.00
2023-09-02T04:12:42.249Z,16.00
2023-09-02T04:15:06.785Z,16.00
2023-09-02T04:17:32.085Z,15.90
2023-09-02T04:19:56.173Z,15.90
2023-09-02T04:22:20.505Z,16.00
2023-09-02T04:24:43.774Z,16.00
2023-09-02T04:27:07.037Z,15.90
2023-09-02T04:29:30.229Z,15.90
2023-09-02T04:31:56.888Z,15.90
2023-09-02T04:34:23.928Z,15.90
2023-09-02T04:36:48.266Z,16.00
2023-09-02T04:39:11.903Z,15.80
2023-09-02T04:41:35.545Z,15.90
2023-09-02T04:43:58.723Z,15.90
2023-09-02T04:46:22.018Z,15.90
2023-09-02T04:48:48.115Z,15.90
2023-09-02T04:51:13.660Z,15.90
2023-09-02T04:53:37.664Z,15.80
2023-09-02T04:56:01.981Z,15.80
2023-09-02T04:58:27.487Z,15.90
2023-09-02T05:00:51.121Z,15.80
2023-09-02T05:03:14.563Z,15.80
2023-09-02T05:05:38.114Z,15.80
2023-09-02T05:08:06.922Z,15.80
2023-09-02T05:10:30.663Z,15.80
2023-09-02T05:12:54.444Z,15.80
2023-09-02T05:15:18.002Z,15.80
2023-09-02T05:17:43.788Z,15.80
2023-09-02T05:20:09.250Z,15.90
2023-09-02T05:22:33.137Z,15.90
2023-09-02T05:24:57.861Z,16.00
2023-09-02T05:27:22.343Z,15.90
2023-09-02T05:29:46.324Z,15.90
2023-09-02T05:32:10.953Z,15.90
2023-09-02T05:34:36.166Z,16.00
2023-09-02T05:37:00.926Z,16.00
2023-09-02T05:39:24.150Z,15.90
2023-09-02T05:41:48.711Z,16.00
2023-09-02T05:44:11.905Z,16.00
2023-09-02T05:46:35.146Z,16.00
2023-09-02T05:48:58.478Z,16.10
2023-09-02T05:51:21.808Z,16.00
2023-09-02T05:53:47.553Z,16.00
2023-09-02T05:56:10.773Z,16.00
2023-09-02T05:58:35.345Z,16.00
2023-09-02T06:01:00.491Z,16.10
2023-09-02T06:03:24.110Z,16.10
2023-09-02T06:05:47.329Z,16.20
2023-09-02T06:08:10.893Z,16.10
2023-09-02T06:10:34.090Z,16.20
2023-09-02T06:12:57.612Z,16.30
2023-09-02T06:15:22.339Z,16.30
2023-09-02T06:17:45.611Z,16.30
2023-09-02T06:20:10.392Z,16.40
2023-09-02T06:22:33.638Z,16.40
2023-09-02T06:24:57.015Z,16.50
2023-09-02T06:27:20.243Z,16.50
2023-09-02T06:29:45.746Z,16.50
2023-09-02T06:32:10.288Z,16.50
2023-09-02T06:34:33.445Z,16.40
2023-09-02T06:36:56.724Z,16.30
2023-09-02T06:39:19.908Z,16.40
2023-09-02T06:41:43.730Z,16.50
2023-09-02T06:44:09.065Z,16.60
2023-09-02T06:46:34.787Z,16.50
2023-09-02T06:49:00.686Z,16.50
2023-09-02T06:51:24.808Z,16.70
2023-09-02T06:53:47.997Z,16.80
2023-09-02T06:56:14.146Z,16.80
2023-09-02T06:58:39.820Z,16.80
2023-09-02T07:01:03.165Z,16.80
2023-09-02T07:03:26.623Z,16.80
2023-09-02T07:05:51.457Z,16.90
2023-09-02T07:08:14.659Z,16.90
2023-09-02T07:10:38.130Z,17.00
2023-09-02T07:13:01.307Z,16.90
2023-09-02T07:15:24.648Z,17.00
2023-09-02T07:17:48.280Z,17.00
2023-09-02T07:20:13.469Z,17.10
2023-09-02T07:22:38.640Z,17.10
2023-09-02T07:25:01.918Z,17.20
2023-09-02T07:27:25.143Z,17.40
2023-09-02T07:29:48.423Z,17.20
2023-09-02T07:32:11.652Z,17.40
2023-09-02T07:34:38.517Z,17.50
2023-09-02T07:37:01.723Z,17.50
2023-09-02T07:39:26.266Z,17.60
2023-09-02T07:41:51.375Z,17.60
2023-09-02T07:44:14.585Z,17.70
2023-09-02T07:46:37.771Z,17.60
2023-09-02T07:49:00.913Z,17.60
2023-09-02T07:51:24.220Z,17.70
2023-09-02T07:53:47.451Z,17.80
2023-09-02T07:56:12.009Z,17.70
2023-09-02T07:58:35.319Z,17.80
2023-09-02T08:00:58.683Z,17.80
2023-09-02T08:03:22.605Z,17.90
2023-09-02T08:05:46.340Z,18.00
2023-09-02T08:08:10.166Z,18.00
2023-09-02T08:10:33.325Z,18.00
2023-09-02T08:12:57.967Z,18.00
2023-09-02T08:15:21.451Z,18.10
2023-09-02T08:17:45.412Z,18.20
2023-09-02T08:20:11.205Z,18.20
2023-09-02T08:22:34.537Z,18.40
2023-09-02T08:24:58.234Z,18.50
2023-09-02T08:27:21.470Z,18.60
2023-09-02T08:29:46.027Z,18.50
2023-09-02T08:32:09.254Z,18.70
2023-09-02T08:34:32.463Z,18.80
2023-09-02T08:36:55.818Z,19.00
2023-09-02T08:39:19.083Z,18.80
2023-09-02T08:41:46.845Z,19.00
2023-09-02T08:44:13.945Z,19.00
2023-09-02T08:46:43.771Z,19.00
2023-09-02T08:49:07.368Z,18.90
2023-09-02T08:51:31.157Z,19.00
2023-09-02T08:53:57.712Z,19.10
2023-09-02T08:56:20.973Z,19.30
2023-09-02T08:58:45.354Z,19.30
2023-09-02T09:01:11.763Z,19.30
2023-09-02T09:03:37.197Z,19.50
2023-09-02T09:06:03.736Z,19.50
2023-09-02T09:08:29.359Z,19.50
2023-09-02T09:10:54.296Z,19.60
2023-09-02T09:13:19.883Z,19.80
2023-09-02T09:15:43.400Z,20.00
2023-09-02T09:18:07.557Z,19.90
2023-09-02T09:20:32.765Z,20.00
2023-09-02T09:22:55.952Z,20.00
2023-09-02T09:25:20.102Z,20.00
2023-09-02T09:27:43.537Z,20.30
2023-09-02T09:30:28.135Z,20.40
2023-09-02T09:33:00.052Z,20.40
2023-09-02T09:35:24.119Z,20.60
2023-09-02T09:37:56.677Z,20.70
2023-09-02T09:40:31.580Z,20.80
2023-09-02T09:42:54.783Z,20.80
2023-09-02T09:45:18.242Z,21.00
2023-09-02T09:47:43.856Z,21.10
2023-09-02T09:50:15.800Z,21.00
2023-09-02T09:52:39.094Z,20.60
2023-09-02T09:55:03.825Z,21.00
2023-09-02T09:57:37.994Z,20.60
2023-09-02T10:00:01.785Z,21.00
2023-09-02T10:02:28.636Z,21.00
2023-09-02T10:04:54.147Z,21.30
2023-09-02T10:07:22.231Z,21.50
2023-09-02T10:09:46.672Z,21.20
2023-09-02T10:12:14.780Z,21.40
2023-09-02T10:14:38.354Z,21.60
2023-09-02T10:17:01.536Z,21.50
2023-09-02T10:19:24.812Z,21.60
2023-09-02T10:21:48.941Z,21.00
2023-09-02T10:24:15.440Z,21.30
2023-09-02T10:26:47.086Z,21.60
2023-09-02T10:29:13.655Z,21.40
2023-09-02T10:31:41.803Z,21.40
2023-09-02T10:34:10.238Z,21.90
2023-09-02T10:36:39.160Z,22.00
2023-09-02T10:39:05.380Z,22.00
2023-09-02T10:41:30.160Z,22.40
2023-09-02T10:43:54.021Z,22.50
2023-09-02T10:46:19.291Z,22.50
2023-09-02T10:48:45.769Z,22.40
2023-09-02T10:51:09.939Z,22.20
2023-09-02T10:54:03.877Z,22.40
2023-09-02T10:56:28.506Z,22.60
2023-09-02T10:58:51.904Z,22.50
2023-09-02T11:01:15.286Z,22.60
2023-09-02T11:03:48.451Z,22.80
2023-09-02T11:06:13.745Z,23.00
2023-09-02T11:08:47.932Z,22.80
2023-09-02T11:11:11.154Z,22.90
2023-09-02T11:13:34.328Z,22.50
2023-09-02T11:16:16.168Z,23.10
2023-09-02T11:18:41.401Z,22.90
2023-09-02T11:21:06.063Z,22.70
2023-09-02T11:23:29.626Z,22.50
2023-09-02T11:26:08.786Z,22.80
2023-09-02T11:28:32.659Z,22.60
2023-09-02T11:31:09.728Z,22.90
2023-09-02T11:33:33.181Z,22.60
2023-09-02T11:36:11.823Z,22.70
2023-09-02T11:38:36.028Z,22.50
2023-09-02T11:40:59.302Z,23.00
2023-09-02T11:43:22.603Z,23.10
2023-09-02T11:45:47.234Z,23.00
2023-09-02T11:48:10.449Z,23.00
2023-09-02T11:50:33.980Z,23.10
2023-09-02T11:52:59.580Z,23.30
2023-09-02T11:55:23.307Z,23.10
2023-09-02T11:57:48.721Z,23.20
2023-09-02T12:00:18.813Z,23.10
2023-09-02T12:02:42.108Z,23.50
2023-09-02T12:05:06.094Z,22.90
2023-09-02T12:07:29.555Z,23.20
2023-09-02T12:09:56.105Z,23.40
2023-09-02T12:12:19.915Z,23.50
2023-09-02T12:14:43.625Z,23.50
2023-09-02T12:17:07.304Z,23.30
2023-09-02T12:19:30.762Z,23.00
2023-09-02T12:21:55.073Z,23.00
2023-09-02T12:24:18.455Z,23.00
2023-09-02T12:26:49.219Z,23.10
2023-09-02T12:29:19.490Z,23.10
2023-09-02T12:31:45.150Z,23.10
2023-09-02T12:34:08.926Z,23.10
2023-09-02T12:36:34.892Z,23.10
2023-09-02T12:38:58.116Z,23.00
2023-09-02T12:41:21.396Z,22.90
2023-09-02T12:43:46.032Z,23.00
2023-09-02T12:46:09.363Z,23.00
2023-09-02T12:48:32.599Z,23.00
2023-09-02T12:50:55.776Z,23.10
2023-09-02T12:53:19.439Z,23.30
2023-09-02T12:55:44.442Z,23.30
2023-09-02T12:58:07.712Z,23.50
2023-09-02T13:00:32.319Z,23.70
2023-09-02T13:02:56.185Z,23.90
2023-09-02T13:05:19.568Z,23.80
2023-09-02T13:07:43.162Z,24.00
2023-09-02T13:10:07.823Z,24.00
2023-09-02T13:12:31.327Z,24.50
2023-09-02T13:14:54.575Z,24.30
2023-09-02T13:17:20.156Z,24.50
2023-09-02T13:19:43.585Z,24.20
2023-09-02T13:22:08.057Z,24.50
2023-09-02T13:24:32.836Z,24.60
2023-09-02T13:26:56.921Z,24.60
2023-09-02T13:29:24.351Z,23.80
2023-09-02T13:31:48.389Z,23.50
2023-09-02T13:34:30.125Z,23.60
2023-09-02T13:36:53.383Z,24.00
2023-09-02T13:39:16.576Z,24.00
2023-09-02T13:41:40.021Z,24.10
2023-09-02T13:44:03.319Z,24.20
2023-09-02T13:46:26.531Z,24.50
2023-09-02T13:48:49.766Z,24.30
2023-09-02T13:51:19.062Z,23.90
2023-09-02T13:53:42.240Z,23.90
2023-09-02T13:56:05.867Z,24.30
2023-09-02T13:58:36.738Z,24.40
2023-09-02T14:01:00.568Z,24.00
2023-09-02T14:03:27.476Z,24.20
2023-09-02T14:05:52.850Z,24.00
2023-09-02T14:08:21.381Z,23.60
2023-09-02T14:10:44.791Z,23.50
2023-09-02T14:13:09.824Z,23.60
2023-09-02T14:15:33.374Z,23.90
2023-09-02T14:17:57.822Z,24.00
2023-09-02T14:20:21.081Z,23.90
2023-09-02T14:22:44.369Z,23.50
2023-09-02T14:25:09.714Z,23.20
2023-09-02T14:27:33.039Z,23.40
2023-09-02T14:29:56.226Z,23.60
2023-09-02T14:32:19.614Z,23.60
2023-09-02T14:34:44.030Z,23.50
2023-09-02T14:37:10.992Z,23.50
2023-09-02T14:39:36.030Z,23.60
2023-09-02T14:42:01.028Z,23.70
2023-09-02T14:44:24.876Z,23.30
2023-09-02T14:46:48.519Z,23.70
2023-09-02T14:49:14.443Z,23.50
2023-09-02T14:51:37.706Z,23.60
2023-09-02T14:54:02.624Z,23.10
2023-09-02T14:56:26.375Z,23.20
2023-09-02T14:58:51.312Z,23.00
2023-09-02T15:01:17.029Z,23.10
2023-09-02T15:03:40.888Z,23.50
2023-09-02T15:06:04.125Z,23.60
2023-09-02T15:08:28.045Z,23.90
2023-09-02T15:10:51.854Z,24.30
2023-09-02T15:13:16.301Z,23.80
2023-09-02T15:15:43.827Z,23.30
2023-09-02T15:18:09.146Z,23.40
2023-09-02T15:20:32.550Z,23.20
2023-09-02T15:22:58.025Z,23.30
2023-09-02T15:25:25.916Z,23.50
2023-09-02T15:27:49.230Z,23.10
2023-09-02T15:30:13.799Z,23.20
2023-09-02T15:32:38.431Z,23.00
2023-09-02T15:35:01.758Z,22.90
2023-09-02T15:37:26.030Z,22.90
2023-09-02T15:39:55.071Z,23.20
2023-09-02T15:42:18.318Z,23.40
2023-09-02T15:44:47.327Z,23.20
2023-09-02T15:47:11.896Z,23.10
2023-09-02T15:49:36.379Z,23.10
2023-09-02T15:51:59.614Z,23.40
2023-09-02T15:54:22.787Z,23.90
2023-09-02T15:56:45.980Z,23.50
2023-09-02T15:59:09.161Z,23.80
2023-09-02T16:01:32.513Z,23.60
2023-09-02T16:03:55.895Z,23.30
2023-09-02T16:06:20.875Z,23.60
2023-09-02T16:08:44.034Z,23.90
2023-09-02T16:11:07.221Z,23.90
2023-09-02T16:13:30.419Z,23.90
2023-09-02T16:15:53.759Z,23.90
2023-09-02T16:18:17.020Z,24.00
2023-09-02T16:20:40.357Z,23.60
2023-09-02T16:23:05.393Z,23.80
2023-09-02T16:25:28.587Z,23.00
2023-09-02T16:27:53.422Z,22.90
2023-09-02T16:30:18.231Z,23.00
2023-09-02T16:32:43.744Z,23.10
2023-09-02T16:35:08.406Z,23.00
2023-09-02T16:37:31.999Z,22.90
2023-09-02T16:39:58.317Z,22.80
2023-09-02T16:42:23.097Z,22.80
2023-09-02T16:44:48.149Z,22.50
2023-09-02T16:47:17.085Z,22.50
2023-09-02T16:49:40.335Z,22.50
2023-09-02T16:52:08.357Z,22.70
2023-09-02T16:54:33.199Z,22.60
2023-09-02T16:57:01.272Z,22.40
2023-09-02T16:59:24.523Z,22.40
2023-09-02T17:01:48.943Z,22.30
2023-09-02T17:04:13.702Z,22.40
2023-09-02T17:06:37.702Z,22.10
2023-09-02T17:09:03.353Z,22.30
2023-09-02T17:11:28.912Z,22.30
2023-09-02T17:13:53.439Z,22.40
2023-09-02T17:16:16.915Z,22.10
2023-09-02T17:18:41.025Z,22.00
2023-09-02T17:21:04.771Z,21.80
2023-09-02T17:23:31.239Z,21.90
2023-09-02T17:25:54.400Z,21.70
2023-09-02T17:28:22.014Z,21.80
2023-09-02T17:30:48.732Z,21.60
2023-09-02T17:33:12.190Z,21.60
2023-09-02T17:35:35.439Z,21.50
2023-09-02T17:37:58.965Z,21.60
2023-09-02T17:40:22.444Z,21.50
2023-09-02T17:42:46.435Z,21.50
2023-09-02T17:45:11.479Z,21.30
2023-09-02T17:47:36.058Z,21.40
2023-09-02T17:49:59.645Z,21.20
2023-09-02T17:52:22.873Z,21.30
2023-09-02T17:54:46.050Z,21.20
2023-09-02T17:57:09.219Z,20.90
2023-09-02T17:59:32.447Z,21.00
2023-09-02T18:01:55.774Z,21.00
2023-09-02T18:04:20.321Z,20.90
2023-09-02T18:06:43.557Z,20.80
2023-09-02T18:09:06.826Z,20.60
2023-09-02T18:11:32.152Z,20.60
2023-09-02T18:13:55.290Z,20.70
2023-09-02T18:16:18.533Z,20.80
2023-09-02T18:18:41.764Z,20.70
2023-09-02T18:21:06.420Z,20.60
2023-09-02T18:23:29.568Z,20.60
2023-09-02T18:25:53.218Z,20.50
2023-09-02T18:28:16.508Z,20.30
2023-09-02T18:30:39.875Z,20.40
2023-09-02T18:33:03.147Z,20.40
2023-09-02T18:35:26.376Z,20.30
2023-09-02T18:37:51.133Z,20.20
2023-09-02T18:40:15.900Z,20.00
2023-09-02T18:42:39.181Z,20.00
2023-09-02T18:45:02.344Z,20.00
2023-09-02T18:47:25.738Z,20.00
2023-09-02T18:49:48.961Z,20.00
2023-09-02T18:52:12.293Z,20.00
2023-09-02T18:54:36.866Z,20.00
2023-09-02T18:57:00.301Z,19.80
2023-09-02T18:59:23.480Z,19.70
2023-09-02T19:01:46.688Z,19.80
2023-09-02T19:04:09.845Z,19.80
2023-09-02T19:06:34.658Z,19.80
2023-09-02T19:08:58.184Z,19.60
2023-09-02T19:11:22.795Z,19.60
2023-09-02T19:13:46.039Z,19.60
2023-09-02T19:16:09.307Z,19.60
2023-09-02T19:18:32.693Z,19.50
2023-09-02T19:20:56.675Z,19.50
2023-09-02T19:23:20.436Z,19.50
2023-09-02T19:25:45.510Z,19.40
2023-09-02T19:28:10.080Z,19.40
2023-09-02T19:30:34.046Z,19.20
2023-09-02T19:32:57.287Z,19.30
2023-09-02T19:35:20.686Z,19.30
2023-09-02T19:37:45.015Z,19.00
2023-09-02T19:40:09.910Z,19.00
2023-09-02T19:42:33.075Z,19.10
2023-09-02T19:44:57.561Z,19.00
2023-09-02T19:47:21.303Z,19.00
2023-09-02T19:49:44.536Z,19.00
2023-09-02T19:52:07.803Z,19.00
2023-09-02T19:54:30.998Z,18.90
2023-09-02T19:56:54.258Z,18.90
2023-09-02T19:59:17.421Z,19.00
2023-09-02T20:01:42.120Z,18.90
2023-09-02T20:04:06.301Z,19.00
2023-09-02T20:06:29.637Z,18.90
2023-09-02T20:08:52.809Z,18.70
2023-09-02T20:11:16.157Z,18.70
2023-09-02T20:13:39.344Z,18.90
2023-09-02T20:16:04.889Z,18.60
2023-09-02T20:18:29.457Z,18.60
2023-09-02T20:20:52.848Z,18.60
2023-09-02T20:23:16.023Z,18.60
2023-09-02T20:25:39.231Z,18.70
2023-09-02T20:28:02.674Z,18.70
2023-09-02T20:30:25.887Z,18.50
2023-09-02T20:32:51.318Z,18.60
2023-09-02T20:35:16.530Z,18.50
2023-09-02T20:37:41.687Z,18.40
2023-09-02T20:40:05.707Z,18.30
2023-09-02T20:42:30.065Z,18.20
2023-09-02T20:44:54.011Z,18.20
2023-09-02T20:47:17.202Z,18.20
2023-09-02T20:49:40.424Z,18.10
2023-09-02T20:52:07.401Z,18.20
2023-09-02T20:54:30.645Z,18.20
2023-09-02T20:56:53.817Z,18.10
2023-09-02T20:59:17.060Z,18.10
2023-09-02T21:01:40.227Z,18.00
2023-09-02T21:04:03.518Z,18.00
2023-09-02T21:06:26.785Z,18.10
2023-09-02T21:08:51.422Z,18.10
2023-09-02T21:11:16.381Z,18.00
2023-09-02T21:13:40.694Z,18.00
2023-09-02T21:16:03.965Z,18.00
2023-09-02T21:18:27.236Z,17.90
2023-09-02T21:20:50.434Z,18.10
2023-09-02T21:23:13.888Z,18.00
2023-09-02T21:25:38.444Z,18.10
2023-09-02T21:28:01.806Z,18.00
2023-09-02T21:30:24.976Z,17.90
2023-09-02T21:32:48.871Z,17.80
2023-09-02T21:35:13.057Z,17.90
2023-09-02T21:37:36.349Z,17.70
2023-09-02T21:39:59.532Z,17.70
2023-09-02T21:42:24.209Z,17.60
2023-09-02T21:44:47.443Z,17.50
2023-09-02T21:47:11.277Z,17.50
2023-09-02T21:49:34.474Z,17.50
2023-09-02T21:51:58.095Z,17.60
2023-09-02T21:54:21.350Z,17.50
2023-09-02T21:56:44.553Z,17.50
2023-09-02T21:59:09.159Z,17.50
2023-09-02T22:01:32.408Z,17.50
2023-09-02T22:03:56.317Z,17.40
2023-09-02T22:06:19.552Z,17.40
2023-09-02T22:08:45.068Z,17.30
2023-09-02T22:11:08.269Z,17.40
2023-09-02T22:13:31.460Z,17.30
2023-09-02T22:15:57.475Z,17.30
2023-09-02T22:18:22.001Z,17.30
2023-09-02T22:20:45.311Z,17.20
2023-09-02T22:23:08.501Z,17.10
2023-09-02T22:25:31.843Z,17.10
2023-09-02T22:27:55.088Z,17.00
2023-09-02T22:30:18.561Z,17.00
2023-09-02T22:32:43.131Z,17.00
2023-09-02T22:35:07.571Z,17.00
2023-09-02T22:37:30.793Z,17.00
2023-09-02T22:39:54.244Z,16.90
2023-09-02T22:42:17.429Z,17.00
2023-09-02T22:44:40.632Z,17.00
2023-09-02T22:47:03.757Z,17.00
2023-09-02T22:49:28.329Z,17.00
2023-09-02T22:51:51.553Z,16.90
2023-09-02T22:54:14.792Z,16.90
2023-09-02T22:56:38.056Z,17.00
2023-09-02T22:59:01.285Z,17.00
2023-09-02T23:01:24.459Z,17.00
2023-09-02T23:03:47.697Z,16.90
2023-09-02T23:06:13.796Z,17.00
2023-09-02T23:08:37.680Z,17.00
2023-09-02T23:11:00.987Z,16.90
2023-09-02T23:13:24.286Z,17.00
2023-09-02T23:15:47.515Z,16.90
2023-09-02T23:18:11.353Z,17.00
2023-09-02T23:20:34.543Z,16.80
2023-09-02T23:22:59.129Z,16.70
2023-09-02T23:25:25.275Z,16.80
2023-09-02T23:27:50.748Z,16.80
2023-09-02T23:30:15.226Z,16.80
2023-09-02T23:32:39.355Z,16.80
2023-09-02T23:35:02.579Z,16.80
2023-09-02T23:37:25.886Z,16.80
2023-09-02T23:39:50.703Z,16.80
2023-09-02T23:42:14.297Z,16.70
2023-09-02T23:44:37.479Z,16.60
2023-09-02T23:47:00.730Z,16.60
2023-09-02T23:49:24.003Z,16.60
2023-09-02T23:51:47.235Z,16.60
2023-09-02T23:54:10.434Z,16.50
2023-09-02T23:56:35.022Z,16.50
2023-09-02T23:58:58.233Z,16.50
